Meteo Giornale » Osservazioni meteo Italia » Brescia-Ghedi

ore: 13:55 - Osservazioni Meteo Brescia-Ghedi
Lat. 45° 25' N Lon. 10° 17' E Alt. 102 metri s.l.m.

poco_nuvoloso Europe/Rome

25 °C

Poco Nuvoloso

Temp. 24 Ore

13 °C

28 °C

Sud-Est

7.4 Km/h

Dew point 8 °C

Umidità 33 %

Visibilità  10 Km

Il sole sorge alle ore 06:15

Il sole tramonta alle ore 20:18

Data e Ora Cielo e Fenomeni T °C DP °C Um. % Pres. hPa Vis. km Vento km/h
Oggi h: 13:55 poco_nuvoloso Poco Nuvoloso 25 8 33 1017 10 SE 7.4
Oggi h: 12:55 sereno Sereno 24 7 33 1017 10 S/SE 9.3
Oggi h: 11:55 sereno Sereno 23 12 49 1017 10 E/SE 9.3
Oggi h: 10:55 sereno Sereno 21 12 56 1017 8 N 3.7
Oggi h: 09:55 nuvoloso Nuvoloso 20 13 64 1017 7 N 3.7
Oggi h: 08:55 poco_nuvoloso Poco Nuvoloso 18 14 77 1017 7 N 5.5
Oggi h: 07:55 sereno Sereno 15 15 100 1016 6 N 3.7
Oggi h: 06:55 sereno Sereno 13 13 100 1016 6 N 3.7
Oggi h: 05:55 sereno Sereno 14 13 93 1015 8 E 7.4
Oggi h: 04:55 sereno Sereno 15 14 93 1015 8 E 7.4
Oggi h: 03:55 sereno Sereno 15 14 93 1015 10 E/NE 9.3
Oggi h: 02:55 sereno Sereno 16 14 87 1015 10 E/NE 7.4
Oggi h: 01:55 sereno Sereno 16 14 87 1015 10 N 5.5
Oggi h: 00:55 sereno Sereno 17 13 77 1015 10 N 5.5
Ieri h: 23:55 sereno Sereno 17 13 77 1015 10 N 5.5
Ieri h: 22:55 sereno Sereno 18 13 72 1015 10 N 5.5
Ieri h: 21:55 sereno Sereno 22 13 56 1015 10 N 5.5
Ieri h: 20:55 sereno Sereno 23 13 53 1014 10 N 3.7
Ieri h: 19:55 sereno Sereno 25 9 36 1015 10 N 3.7
Ieri h: 18:55 sereno Sereno 27 8 30 1015 10 N 3.7
Ieri h: 17:55 sereno Sereno 28 8 28 1015 10 N 5.5
Ieri h: 16:55 poco_nuvoloso Poco Nuvoloso 28 7 26 1015 10 N 5.5